Time;durP1;ratioP1;P1;durP2;ratioP2;P2;SDS_P1;SDS_P2;PMS_P1;PMS_P2;Temp;Humidity;BMP_temperature;BMP_pressure;BME280_temperature;BME280_humidity;BME280_pressure;Samples;Min_cycle;Max_cycle;Signal;HPM_P1;HPM_P2
2024/01/31 00:02:12;;;;;;;6.38;3.28;;;;;;;;;;5010055;28;20062;-76
2024/01/31 00:04:38;;;;;;;7.50;3.50;;;;;;;;;;5008175;28;20033;-77
2024/01/31 00:07:04;;;;;;;9.52;3.97;;;;;;;;;;5006959;28;20437;-77
2024/01/31 00:09:30;;;;;;;7.15;3.60;;;;;;;;;;5025037;28;20038;-77
2024/01/31 00:11:56;;;;;;;5.80;3.15;;;;;;;;;;5007674;28;20057;-77
2024/01/31 00:14:21;;;;;;;7.90;3.60;;;;;;;;;;4995567;28;20030;-75
2024/01/31 00:16:47;;;;;;;6.50;3.65;;;;;;;;;;4993520;28;20034;-77
2024/01/31 00:19:13;;;;;;;9.20;4.63;;;;;;;;;;5000485;28;20065;-76
2024/01/31 00:21:38;;;;;;;6.88;3.58;;;;;;;;;;5000404;28;20038;-76
2024/01/31 00:24:05;;;;;;;7.72;3.58;;;;;;;;;;5008614;28;20096;-77
2024/01/31 00:26:31;;;;;;;8.48;3.30;;;;;;;;;;5005450;28;20042;-76
2024/01/31 00:28:57;;;;;;;7.97;3.30;;;;;;;;;;4998636;28;20484;-77
2024/01/31 00:31:23;;;;;;;7.20;3.22;;;;;;;;;;4992761;28;20068;-77
2024/01/31 00:33:48;;;;;;;8.13;3.40;;;;;;;;;;4993280;28;20599;-77
2024/01/31 00:36:15;;;;;;;5.15;2.53;;;;;;;;;;4992951;28;20042;-77
2024/01/31 00:38:41;;;;;;;8.25;3.42;;;;;;;;;;4996048;28;20033;-77
2024/01/31 00:41:07;;;;;;;8.48;3.38;;;;;;;;;;5004206;28;20048;-77
2024/01/31 00:43:33;;;;;;;5.80;3.00;;;;;;;;;;5012642;28;20109;-77
2024/01/31 00:46:03;;;;;;;5.65;3.10;;;;;;;;;;5012500;28;20122;-77
2024/01/31 00:48:32;;;;;;;9.30;3.88;;;;;;;;;;5003180;28;20030;-77
2024/01/31 00:50:58;;;;;;;23.27;10.88;;;;;;;;;;4992268;28;20038;-77
2024/01/31 00:53:24;;;;;;;11.43;5.05;;;;;;;;;;4992605;28;20109;-76
2024/01/31 00:55:50;;;;;;;9.65;4.53;;;;;;;;;;4992731;28;20113;-76
2024/01/31 00:58:16;;;;;;;7.18;4.30;;;;;;;;;;4992670;28;20350;-76
2024/01/31 01:00:41;;;;;;;10.23;4.63;;;;;;;;;;4992188;28;20146;-76
2024/01/31 01:03:08;;;;;;;9.68;4.97;;;;;;;;;;4992053;28;20026;-76
2024/01/31 01:05:34;;;;;;;20.08;8.43;;;;;;;;;;4992228;28;20326;-76
2024/01/31 01:08:00;;;;;;;18.20;5.60;;;;;;;;;;4991438;28;20030;-76
2024/01/31 01:10:27;;;;;;;10.88;5.40;;;;;;;;;;4975303;28;20085;-76
2024/01/31 01:12:53;;;;;;;10.90;4.68;;;;;;;;;;4991377;28;20037;-77
2024/01/31 01:15:19;;;;;;;8.63;4.70;;;;;;;;;;4992711;28;20034;-76
2024/01/31 01:17:45;;;;;;;11.60;5.88;;;;;;;;;;4992499;28;20033;-76
2024/01/31 01:20:11;;;;;;;8.15;4.22;;;;;;;;;;4993530;28;20061;-77
2024/01/31 01:22:36;;;;;;;7.65;4.43;;;;;;;;;;5008488;28;20499;-77
2024/01/31 01:25:02;;;;;;;7.53;4.07;;;;;;;;;;5002258;28;20451;-76
2024/01/31 01:27:28;;;;;;;13.15;4.85;;;;;;;;;;5000076;28;20517;-76
2024/01/31 01:29:54;;;;;;;10.75;4.57;;;;;;;;;;4991718;28;20046;-77
2024/01/31 01:32:20;;;;;;;10.85;5.43;;;;;;;;;;5002168;28;20049;-76
2024/01/31 01:34:46;;;;;;;10.35;5.28;;;;;;;;;;4986431;28;20461;-77
2024/01/31 01:37:12;;;;;;;9.13;4.07;;;;;;;;;;5003996;28;20052;-77
2024/01/31 01:39:39;;;;;;;9.73;4.60;;;;;;;;;;5017471;28;20399;-78
2024/01/31 01:42:05;;;;;;;10.05;4.75;;;;;;;;;;5011784;28;20042;-77
2024/01/31 01:44:33;;;;;;;7.78;3.92;;;;;;;;;;5011746;28;20104;-76
2024/01/31 01:47:02;;;;;;;9.23;4.28;;;;;;;;;;5011535;28;20026;-77
2024/01/31 01:49:31;;;;;;;7.20;3.72;;;;;;;;;;5011400;28;20034;-77
2024/01/31 01:51:57;;;;;;;10.77;4.50;;;;;;;;;;5008461;28;20037;-76
2024/01/31 01:54:23;;;;;;;10.40;4.47;;;;;;;;;;5007689;28;20033;-78
2024/01/31 01:56:49;;;;;;;7.28;4.20;;;;;;;;;;5001952;28;20373;-75
2024/01/31 01:59:16;;;;;;;11.05;4.82;;;;;;;;;;5003458;28;20034;-78
2024/01/31 02:01:43;;;;;;;10.23;5.07;;;;;;;;;;5000218;28;20037;-79
2024/01/31 02:04:09;;;;;;;10.70;5.00;;;;;;;;;;4979568;28;20102;-76
2024/01/31 02:06:35;;;;;;;7.32;4.07;;;;;;;;;;4992085;28;20038;-76
2024/01/31 02:09:02;;;;;;;10.63;5.75;;;;;;;;;;5003963;28;20484;-77
2024/01/31 02:11:30;;;;;;;8.32;4.22;;;;;;;;;;5005275;28;20092;-77
2024/01/31 02:14:00;;;;;;;7.07;3.97;;;;;;;;;;5006079;28;20030;-77
2024/01/31 02:16:26;;;;;;;7.32;3.95;;;;;;;;;;5001953;28;20062;-77
2024/01/31 02:18:52;;;;;;;7.55;4.25;;;;;;;;;;4992506;28;20400;-77
2024/01/31 02:21:19;;;;;;;9.07;4.82;;;;;;;;;;4990140;28;20121;-77
2024/01/31 02:23:45;;;;;;;7.97;4.80;;;;;;;;;;4992240;28;20547;-76
2024/01/31 02:26:11;;;;;;;8.48;4.60;;;;;;;;;;4994910;28;20030;-76
2024/01/31 02:28:36;;;;;;;8.18;4.57;;;;;;;;;;5001834;28;20096;-77
2024/01/31 02:31:02;;;;;;;6.78;3.90;;;;;;;;;;4999098;28;20160;-77
2024/01/31 02:33:28;;;;;;;12.73;4.72;;;;;;;;;;4992051;28;20554;-76
2024/01/31 02:35:54;;;;;;;7.07;3.97;;;;;;;;;;4991626;28;20093;-77
2024/01/31 02:38:19;;;;;;;5.57;3.50;;;;;;;;;;4991617;28;20040;-77
2024/01/31 02:40:45;;;;;;;6.43;3.92;;;;;;;;;;4990371;28;20035;-76
2024/01/31 02:43:11;;;;;;;8.20;4.00;;;;;;;;;;4991533;28;20412;-76
2024/01/31 02:45:36;;;;;;;5.70;3.60;;;;;;;;;;4994407;28;20053;-76
2024/01/31 02:48:03;;;;;;;5.50;3.45;;;;;;;;;;4995418;28;20038;-76
2024/01/31 02:50:30;;;;;;;6.32;3.60;;;;;;;;;;4995074;28;20030;-77
2024/01/31 02:52:57;;;;;;;9.55;4.82;;;;;;;;;;4998060;28;20460;-77
2024/01/31 02:55:24;;;;;;;8.57;4.03;;;;;;;;;;5013783;28;20041;-75
2024/01/31 02:57:50;;;;;;;6.45;4.05;;;;;;;;;;5007514;28;20110;-75
2024/01/31 03:00:16;;;;;;;7.10;4.20;;;;;;;;;;5006215;28;20026;-75
2024/01/31 03:02:43;;;;;;;7.63;4.50;;;;;;;;;;4998163;28;20038;-76
2024/01/31 03:05:12;;;;;;;7.70;4.20;;;;;;;;;;4996276;28;20448;-76
2024/01/31 03:07:39;;;;;;;7.68;4.55;;;;;;;;;;5006194;28;20034;-76
2024/01/31 03:10:06;;;;;;;8.45;4.70;;;;;;;;;;5014283;28;20041;-76
2024/01/31 03:12:32;;;;;;;7.65;4.13;;;;;;;;;;5000472;28;20046;-76
2024/01/31 03:14:57;;;;;;;9.38;4.72;;;;;;;;;;4994809;28;20034;-76
2024/01/31 03:17:23;;;;;;;7.97;4.63;;;;;;;;;;4994726;28;20083;-76
2024/01/31 03:19:49;;;;;;;10.70;4.97;;;;;;;;;;5008401;28;20037;-77
2024/01/31 03:22:14;;;;;;;7.97;4.93;;;;;;;;;;5009596;28;20396;-76
2024/01/31 03:24:40;;;;;;;9.05;4.80;;;;;;;;;;5013127;28;20041;-75
2024/01/31 03:27:07;;;;;;;8.23;4.55;;;;;;;;;;5014114;28;20041;-76
2024/01/31 03:29:33;;;;;;;8.90;4.80;;;;;;;;;;5013516;28;20061;-76
2024/01/31 03:31:59;;;;;;;9.48;5.38;;;;;;;;;;5009032;28;20030;-75
2024/01/31 03:34:24;;;;;;;11.23;5.75;;;;;;;;;;5004852;28;20032;-75
2024/01/31 03:36:50;;;;;;;10.93;5.22;;;;;;;;;;5013995;28;20575;-75
2024/01/31 03:39:18;;;;;;;9.93;5.30;;;;;;;;;;5007033;28;20112;-76
2024/01/31 03:41:44;;;;;;;11.88;4.85;;;;;;;;;;5013406;28;20042;-76
2024/01/31 03:44:10;;;;;;;8.18;5.28;;;;;;;;;;5014071;28;20042;-76
2024/01/31 03:46:36;;;;;;;8.35;4.65;;;;;;;;;;5005424;28;20097;-76
2024/01/31 03:49:02;;;;;;;10.45;4.43;;;;;;;;;;5013732;28;20104;-76
2024/01/31 03:51:28;;;;;;;9.45;4.60;;;;;;;;;;5012066;28;20076;-76
2024/01/31 03:53:53;;;;;;;7.88;4.38;;;;;;;;;;5012457;28;20057;-76
2024/01/31 03:56:20;;;;;;;9.27;4.80;;;;;;;;;;5013552;28;20029;-76
2024/01/31 03:58:46;;;;;;;10.95;4.97;;;;;;;;;;5004951;28;20554;-76
2024/01/31 04:01:16;;;;;;;8.50;4.60;;;;;;;;;;5011878;28;20120;-75
2024/01/31 04:03:43;;;;;;;9.38;4.63;;;;;;;;;;4993435;28;20048;-75
2024/01/31 04:06:09;;;;;;;6.32;3.90;;;;;;;;;;4994078;28;20534;-74
2024/01/31 04:08:35;;;;;;;6.57;4.13;;;;;;;;;;4997535;28;20429;-75
2024/01/31 04:11:01;;;;;;;9.95;5.00;;;;;;;;;;5002177;28;20022;-76
2024/01/31 04:13:27;;;;;;;12.43;5.10;;;;;;;;;;4994036;28;20069;-74
2024/01/31 04:15:53;;;;;;;26.10;6.70;;;;;;;;;;4994292;28;20121;-75
2024/01/31 04:18:19;;;;;;;17.25;6.03;;;;;;;;;;4994538;28;20102;-75
2024/01/31 04:20:45;;;;;;;14.13;4.65;;;;;;;;;;4993798;28;20527;-76
2024/01/31 04:23:12;;;;;;;11.10;4.80;;;;;;;;;;4994047;28;20436;-75
2024/01/31 04:25:37;;;;;;;9.75;4.15;;;;;;;;;;5006593;28;20038;-75
2024/01/31 04:28:03;;;;;;;11.10;4.50;;;;;;;;;;4993930;28;20049;-76
2024/01/31 04:30:29;;;;;;;10.82;5.00;;;;;;;;;;5001792;28;20033;-76
2024/01/31 04:32:55;;;;;;;13.27;5.40;;;;;;;;;;4981797;28;20031;-75
2024/01/31 04:35:20;;;;;;;11.60;4.45;;;;;;;;;;4993500;28;20038;-75
2024/01/31 04:37:47;;;;;;;9.65;3.85;;;;;;;;;;4993271;28;20515;-75
2024/01/31 04:40:13;;;;;;;12.45;6.28;;;;;;;;;;4993196;28;20484;-74
2024/01/31 04:42:40;;;;;;;15.80;6.10;;;;;;;;;;4993586;28;20117;-75
2024/01/31 04:45:08;;;;;;;9.70;5.07;;;;;;;;;;4993195;28;20391;-74
2024/01/31 04:47:34;;;;;;;7.50;4.10;;;;;;;;;;4992884;28;20022;-74
2024/01/31 04:50:00;;;;;;;16.00;4.10;;;;;;;;;;4993862;28;20022;-74
2024/01/31 04:52:26;;;;;;;17.80;5.60;;;;;;;;;;4987712;28;20041;-74
2024/01/31 04:54:51;;;;;;;7.88;4.75;;;;;;;;;;4981410;28;20476;-74
2024/01/31 04:57:17;;;;;;;11.52;5.07;;;;;;;;;;4994241;28;20034;-75
2024/01/31 04:59:43;;;;;;;12.82;5.43;;;;;;;;;;4992848;28;20062;-76
2024/01/31 05:02:09;;;;;;;15.93;7.18;;;;;;;;;;4992128;28;20437;-75
2024/01/31 05:04:36;;;;;;;13.43;5.68;;;;;;;;;;4993320;28;20034;-74
2024/01/31 05:07:02;;;;;;;12.90;5.43;;;;;;;;;;4991963;28;20173;-74
2024/01/31 05:09:28;;;;;;;16.23;7.03;;;;;;;;;;4991166;28;20046;-75
2024/01/31 05:11:53;;;;;;;7.68;4.75;;;;;;;;;;5006627;28;20042;-74
2024/01/31 05:14:20;;;;;;;14.45;5.55;;;;;;;;;;4991138;28;20110;-75
2024/01/31 05:16:46;;;;;;;17.33;7.68;;;;;;;;;;5010730;28;20069;-75
2024/01/31 05:19:12;;;;;;;21.73;8.15;;;;;;;;;;4992753;28;20030;-74
2024/01/31 05:21:47;;;;;;;20.08;7.80;;;;;;;;;;4992051;28;20517;-74
2024/01/31 05:24:14;;;;;;;16.35;5.85;;;;;;;;;;4992245;28;20035;-74
2024/01/31 05:26:40;;;;;;;21.02;7.88;;;;;;;;;;5024432;28;20084;-76
2024/01/31 05:29:06;;;;;;;12.82;6.25;;;;;;;;;;4992474;28;20026;-79
2024/01/31 05:31:32;;;;;;;14.80;6.03;;;;;;;;;;4992196;28;20085;-77
2024/01/31 05:33:58;;;;;;;15.45;5.68;;;;;;;;;;4998351;28;20496;-80
2024/01/31 05:36:25;;;;;;;22.75;8.70;;;;;;;;;;4997752;28;20106;-79
2024/01/31 05:38:51;;;;;;;17.45;7.45;;;;;;;;;;5007794;28;20065;-79
2024/01/31 05:41:16;;;;;;;16.83;6.72;;;;;;;;;;4992108;28;20022;-78
2024/01/31 05:43:42;;;;;;;16.90;7.47;;;;;;;;;;4998656;28;20037;-80
2024/01/31 05:46:10;;;;;;;19.20;6.75;;;;;;;;;;4994623;28;20041;-80
2024/01/31 05:48:35;;;;;;;14.48;7.13;;;;;;;;;;4959176;28;20046;-79
2024/01/31 05:51:03;;;;;;;15.65;7.20;;;;;;;;;;4967240;28;20042;-78
2024/01/31 05:53:29;;;;;;;12.05;7.05;;;;;;;;;;4972786;28;20043;-77
2024/01/31 05:55:55;;;;;;;15.38;6.53;;;;;;;;;;4970207;28;20464;-79
2024/01/31 05:58:23;;;;;;;17.40;6.32;;;;;;;;;;4965340;28;20062;-78
2024/01/31 06:00:49;;;;;;;11.20;6.20;;;;;;;;;;4970768;28;20469;-78
2024/01/31 06:03:18;;;;;;;17.55;6.70;;;;;;;;;;4961852;28;20127;-78
2024/01/31 06:05:44;;;;;;;13.88;6.35;;;;;;;;;;4971872;28;20027;-79
2024/01/31 06:08:12;;;;;;;16.33;6.63;;;;;;;;;;4963786;28;20082;-79
2024/01/31 06:10:38;;;;;;;27.42;12.43;;;;;;;;;;4970717;28;20445;-79
2024/01/31 06:13:04;;;;;;;18.60;8.82;;;;;;;;;;4972626;28;20049;-80
2024/01/31 06:15:30;;;;;;;15.50;7.85;;;;;;;;;;4970799;28;20527;-79
2024/01/31 06:17:57;;;;;;;16.00;7.93;;;;;;;;;;4971780;28;20129;-78
2024/01/31 06:20:24;;;;;;;17.23;8.90;;;;;;;;;;4973815;28;20058;-79
2024/01/31 06:22:50;;;;;;;15.60;8.07;;;;;;;;;;4990248;28;20175;-78
2024/01/31 06:25:16;;;;;;;16.88;8.55;;;;;;;;;;4984393;28;20543;-79
2024/01/31 06:27:42;;;;;;;18.08;8.38;;;;;;;;;;4976151;28;20445;-79
2024/01/31 06:30:19;;;;;;;16.05;8.35;;;;;;;;;;4975495;28;20039;-77
2024/01/31 06:32:47;;;;;;;20.10;9.38;;;;;;;;;;4978497;28;20047;-80
2024/01/31 06:35:14;;;;;;;15.43;8.38;;;;;;;;;;4984563;28;20081;-80
2024/01/31 06:37:40;;;;;;;21.83;9.73;;;;;;;;;;4988208;28;20476;-79
2024/01/31 06:40:08;;;;;;;19.98;9.68;;;;;;;;;;5008211;28;20047;-79
2024/01/31 06:42:33;;;;;;;19.02;10.88;;;;;;;;;;4983788;28;20043;-80
2024/01/31 06:44:59;;;;;;;17.23;9.10;;;;;;;;;;4984021;28;20476;-80
2024/01/31 06:47:26;;;;;;;25.25;10.65;;;;;;;;;;4983383;28;20047;-79
2024/01/31 06:49:52;;;;;;;21.38;9.95;;;;;;;;;;4982872;28;20333;-79
2024/01/31 06:52:20;;;;;;;17.42;7.97;;;;;;;;;;4977355;28;20554;-80
2024/01/31 06:54:46;;;;;;;15.35;8.00;;;;;;;;;;4989953;28;20102;-79
2024/01/31 06:57:12;;;;;;;18.35;9.77;;;;;;;;;;4980264;28;20030;-79
2024/01/31 06:59:39;;;;;;;18.10;8.68;;;;;;;;;;4986527;28;20038;-79
2024/01/31 07:02:05;;;;;;;16.10;7.82;;;;;;;;;;4980384;28;20573;-78
2024/01/31 07:04:31;;;;;;;20.40;8.48;;;;;;;;;;4984572;28;20027;-79
2024/01/31 07:06:57;;;;;;;15.25;8.63;;;;;;;;;;4971142;28;20035;-80
2024/01/31 07:09:26;;;;;;;15.27;8.07;;;;;;;;;;4990377;28;20038;-80
2024/01/31 07:11:51;;;;;;;16.08;8.25;;;;;;;;;;4987758;28;20029;-81
2024/01/31 07:14:17;;;;;;;17.02;7.75;;;;;;;;;;4987135;28;20046;-80
2024/01/31 07:16:43;;;;;;;14.60;8.13;;;;;;;;;;4978678;28;20051;-80
2024/01/31 07:19:08;;;;;;;13.05;7.03;;;;;;;;;;4983299;28;20097;-79
2024/01/31 07:21:36;;;;;;;15.45;7.40;;;;;;;;;;4985252;28;20045;-82
2024/01/31 07:24:03;;;;;;;13.85;6.65;;;;;;;;;;4995194;28;20035;-80
2024/01/31 07:26:29;;;;;;;11.30;6.78;;;;;;;;;;4985471;28;20023;-79
2024/01/31 07:28:59;;;;;;;11.75;6.50;;;;;;;;;;4985079;28;20035;-81
2024/01/31 07:31:26;;;;;;;12.07;6.60;;;;;;;;;;4979954;28;20038;-79
2024/01/31 07:33:51;;;;;;;12.57;6.72;;;;;;;;;;4985760;28;20035;-79
2024/01/31 07:36:17;;;;;;;10.35;6.20;;;;;;;;;;4988191;28;20041;-80
2024/01/31 07:38:43;;;;;;;14.20;6.93;;;;;;;;;;4984122;28;20059;-80
2024/01/31 07:41:11;;;;;;;12.98;6.30;;;;;;;;;;4979924;28;20073;-80
2024/01/31 07:43:37;;;;;;;11.93;6.32;;;;;;;;;;4985036;28;20035;-80
2024/01/31 07:46:04;;;;;;;12.27;6.25;;;;;;;;;;4990051;28;20034;-80
2024/01/31 07:48:30;;;;;;;14.30;6.20;;;;;;;;;;4991494;28;20035;-80
2024/01/31 07:50:56;;;;;;;16.05;7.47;;;;;;;;;;4990268;28;20027;-80
2024/01/31 07:53:23;;;;;;;16.00;6.63;;;;;;;;;;4988697;28;20058;-79
2024/01/31 07:55:49;;;;;;;14.52;6.57;;;;;;;;;;4996497;28;20034;-80
2024/01/31 07:58:15;;;;;;;11.90;6.50;;;;;;;;;;4982695;28;20039;-79
2024/01/31 08:00:41;;;;;;;36.40;8.68;;;;;;;;;;4974201;28;20034;-81
2024/01/31 08:03:08;;;;;;;16.63;6.78;;;;;;;;;;4985108;28;20042;-78
2024/01/31 08:05:34;;;;;;;25.17;7.00;;;;;;;;;;4983487;28;20118;-80
2024/01/31 08:08:00;;;;;;;32.78;7.03;;;;;;;;;;4983362;28;20070;-80
2024/01/31 08:10:26;;;;;;;10.27;5.13;;;;;;;;;;4994062;28;20419;-81
2024/01/31 08:12:52;;;;;;;7.28;3.90;;;;;;;;;;4986850;28;20038;-80
2024/01/31 08:15:19;;;;;;;6.13;3.63;;;;;;;;;;4979613;28;20048;-78
2024/01/31 08:17:46;;;;;;;6.45;3.72;;;;;;;;;;4974146;28;20040;-78
2024/01/31 08:20:12;;;;;;;6.25;3.95;;;;;;;;;;4956247;28;20053;-80
2024/01/31 08:22:38;;;;;;;6.00;3.42;;;;;;;;;;4984624;28;20041;-80
2024/01/31 08:25:05;;;;;;;9.23;3.63;;;;;;;;;;4986187;28;20109;-79
2024/01/31 08:27:31;;;;;;;10.13;4.05;;;;;;;;;;4980045;28;20078;-80
2024/01/31 08:29:58;;;;;;;8.52;3.33;;;;;;;;;;4981747;28;20034;-78
2024/01/31 08:32:24;;;;;;;5.97;3.33;;;;;;;;;;4974202;28;20109;-78
2024/01/31 08:34:50;;;;;;;10.50;3.58;;;;;;;;;;4980708;28;20034;-80
2024/01/31 08:37:16;;;;;;;7.28;3.20;;;;;;;;;;4985604;28;20041;-79
2024/01/31 08:39:42;;;;;;;8.55;3.45;;;;;;;;;;4973330;28;20134;-80
2024/01/31 08:42:08;;;;;;;5.97;3.08;;;;;;;;;;4990146;28;20350;-80
2024/01/31 08:44:34;;;;;;;6.63;3.70;;;;;;;;;;4979470;28;20118;-81
2024/01/31 08:47:00;;;;;;;5.75;3.30;;;;;;;;;;4987764;28;20117;-80
2024/01/31 08:49:25;;;;;;;5.10;3.40;;;;;;;;;;4973374;28;20071;-80
2024/01/31 08:51:53;;;;;;;6.50;3.50;;;;;;;;;;4980617;28;20089;-80
2024/01/31 08:54:20;;;;;;;9.73;3.22;;;;;;;;;;4973527;28;20034;-79
2024/01/31 08:56:46;;;;;;;4.65;2.85;;;;;;;;;;4974604;28;20042;-79
2024/01/31 08:59:17;;;;;;;6.85;3.42;;;;;;;;;;4962665;28;20042;-80
2024/01/31 09:01:48;;;;;;;5.90;3.38;;;;;;;;;;4977212;28;20047;-79
2024/01/31 09:04:15;;;;;;;8.20;3.47;;;;;;;;;;4973905;28;20046;-79
2024/01/31 09:06:41;;;;;;;6.32;3.17;;;;;;;;;;4980361;28;20027;-76
2024/01/31 09:09:07;;;;;;;6.40;3.03;;;;;;;;;;4990558;28;20122;-78
2024/01/31 09:11:33;;;;;;;5.03;2.58;;;;;;;;;;4974204;28;20058;-80
2024/01/31 09:13:59;;;;;;;6.35;2.80;;;;;;;;;;4973666;28;20042;-80
2024/01/31 09:16:25;;;;;;;12.95;4.28;;;;;;;;;;4984101;28;20422;-79
2024/01/31 09:18:51;;;;;;;7.72;3.33;;;;;;;;;;4983162;28;20034;-80
2024/01/31 09:21:28;;;;;;;5.75;3.40;;;;;;;;;;4984766;28;20113;-81
2024/01/31 09:23:55;;;;;;;4.55;3.22;;;;;;;;;;4986636;28;20440;-82
2024/01/31 09:26:21;;;;;;;6.25;3.13;;;;;;;;;;4974127;28;20015;-81
2024/01/31 09:28:49;;;;;;;6.50;3.45;;;;;;;;;;4972864;28;20101;-76
2024/01/31 09:31:23;;;;;;;6.22;3.33;;;;;;;;;;4982706;28;20080;-79
2024/01/31 09:33:51;;;;;;;4.80;2.90;;;;;;;;;;4984316;28;20416;-81
2024/01/31 09:36:18;;;;;;;5.97;3.67;;;;;;;;;;4990113;28;20104;-78
2024/01/31 09:38:47;;;;;;;6.03;3.05;;;;;;;;;;4974227;28;20042;-79
2024/01/31 09:41:17;;;;;;;10.25;3.13;;;;;;;;;;4990611;28;20041;-81
2024/01/31 09:43:44;;;;;;;6.70;3.60;;;;;;;;;;4988692;28;20528;-79
2024/01/31 09:46:12;;;;;;;5.35;2.90;;;;;;;;;;4983870;28;20046;-78
2024/01/31 09:48:40;;;;;;;5.97;3.10;;;;;;;;;;4979789;28;20053;-80
2024/01/31 09:51:07;;;;;;;4.43;2.50;;;;;;;;;;4981281;28;20024;-79
2024/01/31 09:53:38;;;;;;;7.28;3.25;;;;;;;;;;4979960;28;20407;-80
2024/01/31 09:56:27;;;;;;;6.70;3.30;;;;;;;;;;4990563;28;20030;-80
2024/01/31 09:58:56;;;;;;;6.38;3.47;;;;;;;;;;4985056;28;20031;-80
2024/01/31 10:01:27;;;;;;;11.23;3.20;;;;;;;;;;4968993;28;20053;-79
2024/01/31 10:03:57;;;;;;;6.32;2.88;;;;;;;;;;4986853;28;20405;-80
2024/01/31 10:06:26;;;;;;;5.32;2.70;;;;;;;;;;4991344;28;20030;-80
2024/01/31 10:08:53;;;;;;;6.38;2.47;;;;;;;;;;4986279;28;20553;-80
2024/01/31 10:11:19;;;;;;;4.25;2.70;;;;;;;;;;4999788;28;20051;-81
2024/01/31 10:13:46;;;;;;;3.85;2.50;;;;;;;;;;4987087;28;20054;-79
2024/01/31 10:16:13;;;;;;;5.07;2.80;;;;;;;;;;4985742;28;20037;-82
2024/01/31 10:18:39;;;;;;;6.03;3.22;;;;;;;;;;4990995;28;20042;-80
2024/01/31 10:21:06;;;;;;;5.07;2.97;;;;;;;;;;4998037;28;20190;-80
2024/01/31 10:23:34;;;;;;;4.47;2.85;;;;;;;;;;4985358;28;20113;-81
2024/01/31 10:26:00;;;;;;;7.00;4.07;;;;;;;;;;4988024;28;20462;-81
2024/01/31 10:28:34;;;;;;;5.20;3.10;;;;;;;;;;4995547;28;20035;-83
2024/01/31 10:31:00;;;;;;;;;;;;;;;;;;4975242;28;20038;-81
2024/01/31 10:33:28;;;;;;;7.13;2.90;;;;;;;;;;4995691;28;19914;-81
2024/01/31 10:35:59;;;;;;;6.93;2.63;;;;;;;;;;4983912;28;20052;-81
2024/01/31 10:38:25;;;;;;;5.68;2.83;;;;;;;;;;4992348;28;20053;-80
2024/01/31 10:40:52;;;;;;;5.72;3.05;;;;;;;;;;4989909;28;20042;-80
2024/01/31 10:43:20;;;;;;;5.60;3.15;;;;;;;;;;4986125;28;20448;-80
2024/01/31 10:45:47;;;;;;;10.18;6.55;;;;;;;;;;4988959;28;20050;-79
2024/01/31 10:48:16;;;;;;;6.30;3.72;;;;;;;;;;4987926;28;20121;-81
2024/01/31 10:50:43;;;;;;;7.43;3.53;;;;;;;;;;4988576;28;20526;-80
2024/01/31 10:53:10;;;;;;;7.30;3.60;;;;;;;;;;4988695;28;20508;-81
2024/01/31 10:55:38;;;;;;;6.18;3.15;;;;;;;;;;4986772;28;20833;-81
2024/01/31 10:58:09;;;;;;;7.55;3.75;;;;;;;;;;4999834;28;20039;-82
2024/01/31 11:00:45;;;;;;;5.97;3.70;;;;;;;;;;4973849;28;20133;-80
2024/01/31 11:03:18;;;;;;;6.88;3.60;;;;;;;;;;4988473;28;20100;-78
2024/01/31 11:05:47;;;;;;;37.60;19.00;;;;;;;;;;4986707;28;20082;-81
2024/01/31 11:08:19;;;;;;;13.23;5.47;;;;;;;;;;4979713;28;20058;-78
2024/01/31 11:10:48;;;;;;;9.60;4.95;;;;;;;;;;4987664;28;20051;-79
2024/01/31 11:13:14;;;;;;;6.80;3.55;;;;;;;;;;5004807;28;20520;-81
2024/01/31 11:15:43;;;;;;;10.10;5.63;;;;;;;;;;4999727;28;20093;-80
2024/01/31 11:18:17;;;;;;;8.18;4.05;;;;;;;;;;5000006;28;20034;-81
2024/01/31 11:20:47;;;;;;;7.43;3.00;;;;;;;;;;4992662;28;20055;-80
2024/01/31 11:23:15;;;;;;;7.22;3.08;;;;;;;;;;4995907;28;20547;-79
2024/01/31 11:25:42;;;;;;;7.47;3.40;;;;;;;;;;4996129;28;20484;-80
2024/01/31 11:28:11;;;;;;;5.05;2.70;;;;;;;;;;4988595;28;20030;-80
2024/01/31 11:30:42;;;;;;;6.20;3.00;;;;;;;;;;4980661;28;20061;-82
2024/01/31 11:33:09;;;;;;;9.75;3.10;;;;;;;;;;4981213;28;20038;-81
2024/01/31 11:35:35;;;;;;;6.53;3.60;;;;;;;;;;4991470;28;20026;-80
2024/01/31 11:38:06;;;;;;;8.30;3.15;;;;;;;;;;5006950;28;20085;-82
2024/01/31 11:40:35;;;;;;;8.05;3.25;;;;;;;;;;4983341;28;20046;-80
2024/01/31 11:43:04;;;;;;;4.47;2.65;;;;;;;;;;5013164;28;20049;-79
2024/01/31 11:45:32;;;;;;;4.95;2.95;;;;;;;;;;5015305;28;20030;-81
2024/01/31 11:48:00;;;;;;;4.82;2.45;;;;;;;;;;4996792;28;20046;-80
2024/01/31 11:50:29;;;;;;;4.50;2.80;;;;;;;;;;4980783;28;20034;-80
2024/01/31 11:52:55;;;;;;;6.88;3.10;;;;;;;;;;4981008;28;20041;-79
2024/01/31 11:55:26;;;;;;;6.82;3.15;;;;;;;;;;4979148;28;20050;-80
2024/01/31 11:57:53;;;;;;;6.18;2.65;;;;;;;;;;4978566;28;20027;-81
2024/01/31 12:00:23;;;;;;;11.30;3.17;;;;;;;;;;4981815;28;20524;-81
2024/01/31 12:02:50;;;;;;;5.22;2.60;;;;;;;;;;4986803;28;20062;-80
2024/01/31 12:05:17;;;;;;;5.70;3.38;;;;;;;;;;4976893;28;20051;-81
2024/01/31 12:07:43;;;;;;;7.30;3.03;;;;;;;;;;4980274;28;20014;-81
2024/01/31 12:10:13;;;;;;;3.83;2.50;;;;;;;;;;4986631;28;20034;-80
2024/01/31 12:12:43;;;;;;;5.00;2.30;;;;;;;;;;4996791;28;20034;-80
2024/01/31 12:15:12;;;;;;;6.80;2.70;;;;;;;;;;4980657;28;20389;-79
2024/01/31 12:17:39;;;;;;;4.63;2.50;;;;;;;;;;4976197;28;20030;-79
2024/01/31 12:23:53;;;;;;;6.53;3.22;;;;;;;;;;4982812;28;20130;-80
2024/01/31 12:26:20;;;;;;;5.53;3.13;;;;;;;;;;4986564;28;20145;-79
2024/01/31 12:28:59;;;;;;;4.63;2.50;;;;;;;;;;4978926;28;20438;-79
2024/01/31 12:31:26;;;;;;;6.15;2.75;;;;;;;;;;4974066;28;20065;-79
2024/01/31 12:33:53;;;;;;;8.10;3.40;;;;;;;;;;4989276;28;20126;-80
2024/01/31 12:36:20;;;;;;;6.80;3.15;;;;;;;;;;4973663;28;20460;-81
2024/01/31 12:38:46;;;;;;;11.65;4.40;;;;;;;;;;4989778;28;20030;-80
2024/01/31 12:41:13;;;;;;;7.70;3.40;;;;;;;;;;4988977;28;20066;-80
2024/01/31 12:43:40;;;;;;;9.73;3.45;;;;;;;;;;4981570;28;20049;-80
2024/01/31 12:46:06;;;;;;;5.13;2.72;;;;;;;;;;4973666;28;20377;-81
2024/01/31 12:48:35;;;;;;;5.30;2.60;;;;;;;;;;4976041;28;20050;-81
2024/01/31 12:51:00;;;;;;;6.22;3.53;;;;;;;;;;4980295;28;20438;-80
2024/01/31 12:53:27;;;;;;;5.35;2.67;;;;;;;;;;4984634;28;20027;-78
2024/01/31 12:55:53;;;;;;;7.78;4.28;;;;;;;;;;4956774;28;20038;-78
2024/01/31 12:58:19;;;;;;;5.35;3.25;;;;;;;;;;4979887;28;20496;-81
2024/01/31 13:00:46;;;;;;;5.28;2.92;;;;;;;;;;4981870;28;20531;-81
2024/01/31 13:03:12;;;;;;;18.60;3.58;;;;;;;;;;4974201;28;20106;-81
2024/01/31 13:05:37;;;;;;;17.13;4.68;;;;;;;;;;4978482;28;20038;-80
2024/01/31 13:08:06;;;;;;;10.30;3.30;;;;;;;;;;4987567;28;20481;-80
2024/01/31 13:10:32;;;;;;;9.02;3.45;;;;;;;;;;4976289;28;20404;-81
2024/01/31 13:12:58;;;;;;;5.07;2.78;;;;;;;;;;4977313;28;20102;-81
2024/01/31 13:15:25;;;;;;;4.93;2.80;;;;;;;;;;4978708;28;20031;-80
2024/01/31 13:17:51;;;;;;;6.72;3.25;;;;;;;;;;4980269;28;20090;-81
2024/01/31 13:20:18;;;;;;;7.03;3.53;;;;;;;;;;4980774;28;20133;-78
2024/01/31 13:22:48;;;;;;;5.93;2.90;;;;;;;;;;4984821;28;20096;-80
2024/01/31 13:25:14;;;;;;;7.13;3.28;;;;;;;;;;4981009;28;20081;-80
2024/01/31 13:27:42;;;;;;;7.60;3.95;;;;;;;;;;4974315;28;20027;-81
2024/01/31 13:30:08;;;;;;;15.27;4.68;;;;;;;;;;4972865;28;20473;-79
2024/01/31 13:32:34;;;;;;;8.30;3.97;;;;;;;;;;4976985;28;20035;-80
2024/01/31 13:35:00;;;;;;;10.35;3.97;;;;;;;;;;4969752;28;20034;-79
2024/01/31 13:37:26;;;;;;;11.25;3.50;;;;;;;;;;4972615;28;20043;-79
2024/01/31 13:39:54;;;;;;;15.35;5.07;;;;;;;;;;4968016;28;20516;-75
2024/01/31 13:46:49;;;;;;;7.43;3.72;;;;;;;;;;4964959;28;20121;-80
2024/01/31 13:49:18;;;;;;;4.35;2.40;;;;;;;;;;4959825;28;20042;-83
2024/01/31 13:51:44;;;;;;;4.75;2.60;;;;;;;;;;4979783;28;20039;-79
2024/01/31 13:54:10;;;;;;;4.35;2.45;;;;;;;;;;4979314;28;20528;-79
2024/01/31 14:04:29;;;;;;;7.15;2.80;;;;;;;;;;4967680;28;20061;-76
2024/01/31 14:06:56;;;;;;;9.40;3.75;;;;;;;;;;4970293;28;20444;-78
2024/01/31 14:09:22;;;;;;;5.70;3.40;;;;;;;;;;4973223;28;20034;-77
2024/01/31 14:11:48;;;;;;;6.35;3.15;;;;;;;;;;4971446;28;20031;-77
2024/01/31 14:14:14;;;;;;;10.77;3.78;;;;;;;;;;4972206;28;20397;-76
2024/01/31 14:16:39;;;;;;;6.45;3.53;;;;;;;;;;4971077;28;20061;-77
2024/01/31 14:19:05;;;;;;;3.53;2.53;;;;;;;;;;4971994;28;20051;-79
2024/01/31 14:21:31;;;;;;;18.80;10.23;;;;;;;;;;4971460;28;20034;-77
2024/01/31 14:23:57;;;;;;;23.80;11.60;;;;;;;;;;4954331;28;20037;-79
2024/01/31 14:30:11;;;;;;;14.70;5.90;;;;;;;;;;4992229;28;20029;-76
2024/01/31 14:36:45;;;;;;;4.38;2.60;;;;;;;;;;4967966;28;20086;-77
2024/01/31 14:39:12;;;;;;;12.85;4.15;;;;;;;;;;4979480;28;20073;-79
2024/01/31 14:41:47;;;;;;;11.88;5.70;;;;;;;;;;4975365;28;20400;-77
2024/01/31 14:44:13;;;;;;;12.00;5.88;;;;;;;;;;4978992;28;20087;-77
2024/01/31 14:46:40;;;;;;;24.30;12.50;;;;;;;;;;4987119;28;20968;-78
2024/01/31 14:49:10;;;;;;;7.65;3.55;;;;;;;;;;4980383;28;20053;-77
2024/01/31 14:51:39;;;;;;;12.80;3.28;;;;;;;;;;4992525;28;20096;-77
2024/01/31 14:57:53;;;;;;;13.85;5.53;;;;;;;;;;4982090;28;20175;-77
2024/01/31 15:00:19;;;;;;;7.80;2.83;;;;;;;;;;4974104;28;20081;-78
2024/01/31 15:02:45;;;;;;;3.47;2.20;;;;;;;;;;4971735;28;20034;-79
2024/01/31 15:05:11;;;;;;;11.88;6.45;;;;;;;;;;4979306;28;20432;-78